sensor_id;sensor_type;location;lat;lon;timestamp;pressure;altitude;pressure_sealevel;temperature;humidity
39265;BME280;42646;51.910;7.724;2023-05-01T00:01:16;101245.06;;;7.69;85.26
39265;BME280;42646;51.910;7.724;2023-05-01T00:03:44;101237.34;;;7.66;85.87
39265;BME280;42646;51.910;7.724;2023-05-01T00:06:15;101237.66;;;7.62;85.80
39265;BME280;42646;51.910;7.724;2023-05-01T00:08:43;101230.88;;;7.58;85.82
39265;BME280;42646;51.910;7.724;2023-05-01T00:11:11;101230.25;;;7.54;85.99
39265;BME280;42646;51.910;7.724;2023-05-01T00:13:39;101230.44;;;7.51;85.99
39265;BME280;42646;51.910;7.724;2023-05-01T00:16:08;101222.81;;;7.46;85.47
39265;BME280;42646;51.910;7.724;2023-05-01T00:18:38;101216.88;;;7.43;85.07
39265;BME280;42646;51.910;7.724;2023-05-01T00:21:06;101216.25;;;7.39;84.46
39265;BME280;42646;51.910;7.724;2023-05-01T00:23:34;101217.41;;;7.35;83.85
39265;BME280;42646;51.910;7.724;2023-05-01T00:26:02;101206.19;;;7.32;83.25
39265;BME280;42646;51.910;7.724;2023-05-01T00:28:30;101205.53;;;7.28;82.99
39265;BME280;42646;51.910;7.724;2023-05-01T00:30:59;101206.59;;;7.26;82.36
39265;BME280;42646;51.910;7.724;2023-05-01T00:33:28;101199.69;;;7.23;82.73
39265;BME280;42646;51.910;7.724;2023-05-01T00:35:55;101200.66;;;7.22;83.42
39265;BME280;42646;51.910;7.724;2023-05-01T00:38:23;101193.78;;;7.19;84.87
39265;BME280;42646;51.910;7.724;2023-05-01T00:40:52;101196.63;;;7.16;86.04
39265;BME280;42646;51.910;7.724;2023-05-01T00:43:19;101187.09;;;7.14;86.86
39265;BME280;42646;51.910;7.724;2023-05-01T00:45:47;101180.19;;;7.11;86.61
39265;BME280;42646;51.910;7.724;2023-05-01T00:48:19;101181.38;;;7.07;85.98
39265;BME280;42646;51.910;7.724;2023-05-01T00:50:48;101183.25;;;7.05;85.33
39265;BME280;42646;51.910;7.724;2023-05-01T00:53:17;101182.63;;;7.02;84.34
39265;BME280;42646;51.910;7.724;2023-05-01T00:55:46;101180.09;;;7.00;83.50
39265;BME280;42646;51.910;7.724;2023-05-01T00:58:16;101169.69;;;6.97;83.56
39265;BME280;42646;51.910;7.724;2023-05-01T01:00:44;101165.38;;;6.96;83.34
39265;BME280;42646;51.910;7.724;2023-05-01T01:03:13;101168.97;;;6.95;83.84
39265;BME280;42646;51.910;7.724;2023-05-01T01:05:45;101163.75;;;6.93;84.45
39265;BME280;42646;51.910;7.724;2023-05-01T01:08:21;101162.00;;;6.94;85.60
39265;BME280;42646;51.910;7.724;2023-05-01T01:10:53;101160.38;;;6.91;86.61
39265;BME280;42646;51.910;7.724;2023-05-01T01:13:27;101158.69;;;6.90;87.38
39265;BME280;42646;51.910;7.724;2023-05-01T01:16:02;101152.66;;;6.88;87.72
39265;BME280;42646;51.910;7.724;2023-05-01T01:18:36;101156.22;;;6.87;88.07
39265;BME280;42646;51.910;7.724;2023-05-01T01:21:11;101148.41;;;6.86;88.53
39265;BME280;42646;51.910;7.724;2023-05-01T01:24:35;101140.69;;;6.83;89.46
39265;BME280;42646;51.910;7.724;2023-05-01T01:27:26;101135.59;;;6.80;89.88
39265;BME280;42646;51.910;7.724;2023-05-01T01:33:21;101132.63;;;6.72;89.75
39265;BME280;42646;51.910;7.724;2023-05-01T01:35:55;101131.13;;;6.67;88.99
39265;BME280;42646;51.910;7.724;2023-05-01T01:38:29;101123.41;;;6.64;88.46
39265;BME280;42646;51.910;7.724;2023-05-01T01:41:06;101118.31;;;6.61;87.68
39265;BME280;42646;51.910;7.724;2023-05-01T01:43:40;101114.09;;;6.59;87.06
39265;BME280;42646;51.910;7.724;2023-05-01T01:46:09;101116.06;;;6.55;86.31
39265;BME280;42646;51.910;7.724;2023-05-01T01:48:40;101111.84;;;6.53;85.92
39265;BME280;42646;51.910;7.724;2023-05-01T01:51:14;101111.94;;;6.51;85.60
39265;BME280;42646;51.910;7.724;2023-05-01T01:53:45;101109.50;;;6.48;85.09
39265;BME280;42646;51.910;7.724;2023-05-01T01:56:41;101100.81;;;6.46;85.58
39265;BME280;42646;51.910;7.724;2023-05-01T01:59:12;101098.28;;;6.45;86.42
39265;BME280;42646;51.910;7.724;2023-05-01T02:01:47;101094.91;;;6.42;87.13
39265;BME280;42646;51.910;7.724;2023-05-01T02:04:17;101097.72;;;6.39;86.42
39265;BME280;42646;51.910;7.724;2023-05-01T02:06:49;101096.16;;;6.37;86.08
39265;BME280;42646;51.910;7.724;2023-05-01T02:09:18;101094.63;;;6.33;85.79
39265;BME280;42646;51.910;7.724;2023-05-01T02:11:47;101097.41;;;6.31;85.08
39265;BME280;42646;51.910;7.724;2023-05-01T02:14:17;101091.44;;;6.28;84.37
39265;BME280;42646;51.910;7.724;2023-05-01T02:16:46;101089.13;;;6.23;83.91
39265;BME280;42646;51.910;7.724;2023-05-01T02:19:15;101083.91;;;6.22;83.63
39265;BME280;42646;51.910;7.724;2023-05-01T02:21:44;101083.06;;;6.21;84.57
39265;BME280;42646;51.910;7.724;2023-05-01T02:24:14;101084.97;;;6.19;86.04
39265;BME280;42646;51.910;7.724;2023-05-01T02:26:47;101078.00;;;6.18;87.25
39265;BME280;42646;51.910;7.724;2023-05-01T02:29:16;101074.72;;;6.14;88.94
39265;BME280;42646;51.910;7.724;2023-05-01T02:31:44;101074.94;;;6.11;89.66
39265;BME280;42646;51.910;7.724;2023-05-01T02:34:12;101069.09;;;6.06;89.30
39265;BME280;42646;51.910;7.724;2023-05-01T02:36:40;101060.41;;;6.04;88.81
39265;BME280;42646;51.910;7.724;2023-05-01T02:39:08;101061.56;;;6.00;87.95
39265;BME280;42646;51.910;7.724;2023-05-01T02:41:40;101053.94;;;5.96;87.43
39265;BME280;42646;51.910;7.724;2023-05-01T02:44:10;101047.06;;;5.93;86.82
39265;BME280;42646;51.910;7.724;2023-05-01T02:46:41;101052.41;;;5.92;85.97
39265;BME280;42646;51.910;7.724;2023-05-01T02:49:11;101037.72;;;5.87;85.60
39265;BME280;42646;51.910;7.724;2023-05-01T02:51:40;101036.00;;;5.86;85.42
39265;BME280;42646;51.910;7.724;2023-05-01T02:54:08;101027.34;;;5.84;85.13
39265;BME280;42646;51.910;7.724;2023-05-01T02:56:37;101040.63;;;5.83;84.17
39265;BME280;42646;51.910;7.724;2023-05-01T02:59:05;101033.66;;;5.82;84.05
39265;BME280;42646;51.910;7.724;2023-05-01T03:01:33;101033.75;;;5.80;83.75
39265;BME280;42646;51.910;7.724;2023-05-01T03:04:01;101028.56;;;5.79;82.96
39265;BME280;42646;51.910;7.724;2023-05-01T03:06:29;101026.03;;;5.77;83.11
39265;BME280;42646;51.910;7.724;2023-05-01T03:08:57;101026.16;;;5.76;82.97
39265;BME280;42646;51.910;7.724;2023-05-01T03:11:25;101028.78;;;5.76;83.49
39265;BME280;42646;51.910;7.724;2023-05-01T03:13:55;101028.00;;;5.74;83.68
39265;BME280;42646;51.910;7.724;2023-05-01T03:16:24;101025.38;;;5.74;84.32
39265;BME280;42646;51.910;7.724;2023-05-01T03:18:52;101013.13;;;5.73;84.92
39265;BME280;42646;51.910;7.724;2023-05-01T03:21:21;101018.50;;;5.71;85.94
39265;BME280;42646;51.910;7.724;2023-05-01T03:23:48;101017.66;;;5.71;86.85
39265;BME280;42646;51.910;7.724;2023-05-01T03:26:20;101012.47;;;5.69;87.49
39265;BME280;42646;51.910;7.724;2023-05-01T03:28:52;101011.63;;;5.69;88.38
39265;BME280;42646;51.910;7.724;2023-05-01T03:31:20;101011.94;;;5.64;88.63
39265;BME280;42646;51.910;7.724;2023-05-01T03:33:51;101004.09;;;5.62;88.91
39265;BME280;42646;51.910;7.724;2023-05-01T03:36:18;100999.88;;;5.60;88.85
39265;BME280;42646;51.910;7.724;2023-05-01T03:38:48;101005.25;;;5.58;88.87
39265;BME280;42646;51.910;7.724;2023-05-01T03:41:35;100995.72;;;5.56;89.06
39265;BME280;42646;51.910;7.724;2023-05-01T03:44:08;100995.94;;;5.53;89.38
39265;BME280;42646;51.910;7.724;2023-05-01T03:46:42;100996.00;;;5.51;89.50
39265;BME280;42646;51.910;7.724;2023-05-01T03:49:18;100996.13;;;5.50;89.79
39265;BME280;42646;51.910;7.724;2023-05-01T03:51:48;100994.53;;;5.47;89.53
39265;BME280;42646;51.910;7.724;2023-05-01T03:54:20;100982.38;;;5.45;89.55
39265;BME280;42646;51.910;7.724;2023-05-01T03:57:07;100985.94;;;5.44;89.37
39265;BME280;42646;51.910;7.724;2023-05-01T03:59:36;100985.22;;;5.42;89.12
39265;BME280;42646;51.910;7.724;2023-05-01T04:02:05;100972.13;;;5.40;88.36
39265;BME280;42646;51.910;7.724;2023-05-01T04:04:37;100977.41;;;5.40;87.43
39265;BME280;42646;51.910;7.724;2023-05-01T04:07:05;100980.88;;;5.41;87.23
39265;BME280;42646;51.910;7.724;2023-05-01T04:09:32;100980.88;;;5.41;87.47
39265;BME280;42646;51.910;7.724;2023-05-01T04:12:00;100981.63;;;5.43;88.79
39265;BME280;42646;51.910;7.724;2023-05-01T04:14:29;100973.72;;;5.43;89.84
39265;BME280;42646;51.910;7.724;2023-05-01T04:16:59;100979.84;;;5.43;90.84
39265;BME280;42646;51.910;7.724;2023-05-01T04:19:31;100980.69;;;5.44;91.23
39265;BME280;42646;51.910;7.724;2023-05-01T04:22:02;100974.44;;;5.45;91.70
39265;BME280;42646;51.910;7.724;2023-05-01T04:24:32;100970.13;;;5.44;91.64
39265;BME280;42646;51.910;7.724;2023-05-01T04:27:00;100970.97;;;5.44;91.47
39265;BME280;42646;51.910;7.724;2023-05-01T04:29:28;100968.34;;;5.44;90.99
39265;BME280;42646;51.910;7.724;2023-05-01T04:31:56;100969.94;;;5.47;90.57
39265;BME280;42646;51.910;7.724;2023-05-01T04:34:27;100966.34;;;5.48;90.19
39265;BME280;42646;51.910;7.724;2023-05-01T04:37:22;100966.25;;;5.49;90.13
39265;BME280;42646;51.910;7.724;2023-05-01T04:39:50;100967.66;;;5.55;90.89
39265;BME280;42646;51.910;7.724;2023-05-01T04:42:20;100961.34;;;5.57;92.08
39265;BME280;42646;51.910;7.724;2023-05-01T04:44:48;100968.94;;;5.62;93.26
39265;BME280;42646;51.910;7.724;2023-05-01T04:47:18;100968.66;;;5.67;94.51
39265;BME280;42646;51.910;7.724;2023-05-01T04:49:49;100972.78;;;5.71;95.46
39265;BME280;42646;51.910;7.724;2023-05-01T04:52:17;100965.63;;;5.73;95.83
39265;BME280;42646;51.910;7.724;2023-05-01T04:54:54;100963.72;;;5.75;95.88
39265;BME280;42646;51.910;7.724;2023-05-01T04:57:25;100968.81;;;5.78;95.91
39265;BME280;42646;51.910;7.724;2023-05-01T04:59:53;100964.06;;;5.83;95.32
39265;BME280;42646;51.910;7.724;2023-05-01T05:02:22;100963.84;;;5.86;94.77
39265;BME280;42646;51.910;7.724;2023-05-01T05:04:50;100968.97;;;5.89;93.80
39265;BME280;42646;51.910;7.724;2023-05-01T05:07:20;100965.09;;;5.95;92.76
39265;BME280;42646;51.910;7.724;2023-05-01T05:10:12;100963.94;;;5.99;91.91
39265;BME280;42646;51.910;7.724;2023-05-01T05:12:47;100958.28;;;6.05;91.60
39265;BME280;42646;51.910;7.724;2023-05-01T05:15:14;100963.03;;;6.12;91.71
39265;BME280;42646;51.910;7.724;2023-05-01T05:17:42;100959.03;;;6.20;91.69
39265;BME280;42646;51.910;7.724;2023-05-01T05:20:11;100957.66;;;6.27;91.57
39265;BME280;42646;51.910;7.724;2023-05-01T05:23:06;100961.56;;;6.34;91.42
39265;BME280;42646;51.910;7.724;2023-05-01T05:25:36;100955.03;;;6.39;91.29
39265;BME280;42646;51.910;7.724;2023-05-01T05:28:03;100961.69;;;6.45;91.01
39265;BME280;42646;51.910;7.724;2023-05-01T05:30:31;100961.38;;;6.50;90.66
39265;BME280;42646;51.910;7.724;2023-05-01T05:32:59;100957.47;;;6.55;90.49
39265;BME280;42646;51.910;7.724;2023-05-01T05:35:27;100949.97;;;6.62;89.98
39265;BME280;42646;51.910;7.724;2023-05-01T05:37:56;100961.09;;;6.67;89.39
39265;BME280;42646;51.910;7.724;2023-05-01T05:40:24;100949.25;;;6.73;89.22
39265;BME280;42646;51.910;7.724;2023-05-01T05:42:56;100949.66;;;6.79;88.58
39265;BME280;42646;51.910;7.724;2023-05-01T05:45:28;100955.34;;;6.86;88.02
39265;BME280;42646;51.910;7.724;2023-05-01T05:47:58;100953.03;;;6.94;87.75
39265;BME280;42646;51.910;7.724;2023-05-01T05:50:27;100949.72;;;7.03;87.42
39265;BME280;42646;51.910;7.724;2023-05-01T05:52:56;100954.28;;;7.14;87.44
39265;BME280;42646;51.910;7.724;2023-05-01T05:55:24;100948.22;;;7.25;86.33
39265;BME280;42646;51.910;7.724;2023-05-01T05:58:02;100944.69;;;7.37;85.88
39265;BME280;42646;51.910;7.724;2023-05-01T06:00:30;100944.84;;;7.46;86.28
39265;BME280;42646;51.910;7.724;2023-05-01T06:03:02;100939.03;;;7.54;86.12
39265;BME280;42646;51.910;7.724;2023-05-01T06:05:33;100941.81;;;7.64;86.24
39265;BME280;42646;51.910;7.724;2023-05-01T06:08:01;100944.66;;;7.73;85.93
39265;BME280;42646;51.910;7.724;2023-05-01T06:10:29;100939.53;;;7.83;85.59
39265;BME280;42646;51.910;7.724;2023-05-01T06:12:59;100936.69;;;7.97;84.65
39265;BME280;42646;51.910;7.724;2023-05-01T06:15:48;100933.25;;;8.08;84.21
39265;BME280;42646;51.910;7.724;2023-05-01T06:18:16;100939.41;;;8.20;84.41
39265;BME280;42646;51.910;7.724;2023-05-01T06:20:44;100941.00;;;8.34;84.26
39265;BME280;42646;51.910;7.724;2023-05-01T06:23:12;100940.84;;;8.48;84.13
39265;BME280;42646;51.910;7.724;2023-05-01T06:25:59;100939.66;;;8.63;83.52
39265;BME280;42646;51.910;7.724;2023-05-01T06:28:29;100930.75;;;8.75;82.65
39265;BME280;42646;51.910;7.724;2023-05-01T06:30:58;100927.25;;;8.86;81.46
39265;BME280;42646;51.910;7.724;2023-05-01T06:33:30;100927.84;;;9.01;80.51
39265;BME280;42646;51.910;7.724;2023-05-01T06:36:07;100934.72;;;9.15;81.33
39265;BME280;42646;51.910;7.724;2023-05-01T06:38:34;100938.69;;;9.31;81.25
39265;BME280;42646;51.910;7.724;2023-05-01T06:41:03;100936.59;;;9.46;81.10
39265;BME280;42646;51.910;7.724;2023-05-01T06:43:32;100930.16;;;9.60;80.58
39265;BME280;42646;51.910;7.724;2023-05-01T06:46:01;100935.91;;;9.76;79.84
39265;BME280;42646;51.910;7.724;2023-05-01T06:48:32;100933.91;;;9.89;78.57
39265;BME280;42646;51.910;7.724;2023-05-01T06:51:00;100941.97;;;9.99;77.82
39265;BME280;42646;51.910;7.724;2023-05-01T06:53:30;100931.53;;;10.07;77.35
39265;BME280;42646;51.910;7.724;2023-05-01T06:55:58;100931.75;;;10.15;77.41
39265;BME280;42646;51.910;7.724;2023-05-01T06:58:26;100929.63;;;10.30;77.79
39265;BME280;42646;51.910;7.724;2023-05-01T07:00:55;100939.13;;;10.44;77.62
39265;BME280;42646;51.910;7.724;2023-05-01T07:03:25;100934.16;;;10.60;76.95
39265;BME280;42646;51.910;7.724;2023-05-01T07:05:54;100920.38;;;10.76;76.70
39265;BME280;42646;51.910;7.724;2023-05-01T07:08:22;100927.75;;;10.93;77.38
39265;BME280;42646;51.910;7.724;2023-05-01T07:10:51;100923.91;;;11.17;74.88
39265;BME280;42646;51.910;7.724;2023-05-01T07:13:19;100922.53;;;11.32;74.42
39265;BME280;42646;51.910;7.724;2023-05-01T07:15:48;100918.09;;;11.52;73.18
39265;BME280;42646;51.910;7.724;2023-05-01T07:18:19;100911.66;;;11.64;73.09
39265;BME280;42646;51.910;7.724;2023-05-01T07:20:49;100911.38;;;11.77;73.30
39265;BME280;42646;51.910;7.724;2023-05-01T07:23:18;100915.06;;;11.86;71.67
39265;BME280;42646;51.910;7.724;2023-05-01T07:25:47;100913.38;;;11.94;72.29
39265;BME280;42646;51.910;7.724;2023-05-01T07:28:15;100919.56;;;12.05;72.04
39265;BME280;42646;51.910;7.724;2023-05-01T07:31:11;100912.81;;;12.20;70.96
39265;BME280;42646;51.910;7.724;2023-05-01T07:33:38;100913.47;;;12.32;70.06
39265;BME280;42646;51.910;7.724;2023-05-01T07:36:10;100916.72;;;12.35;69.66
39265;BME280;42646;51.910;7.724;2023-05-01T07:38:38;100912.47;;;12.42;70.07
39265;BME280;42646;51.910;7.724;2023-05-01T07:41:07;100907.13;;;12.52;69.62
39265;BME280;42646;51.910;7.724;2023-05-01T07:43:35;100902.59;;;12.62;70.23
39265;BME280;42646;51.910;7.724;2023-05-01T07:46:03;100901.56;;;12.73;69.08
39265;BME280;42646;51.910;7.724;2023-05-01T07:48:31;100898.72;;;12.84;70.17
39265;BME280;42646;51.910;7.724;2023-05-01T07:51:00;100901.59;;;13.00;70.16
39265;BME280;42646;51.910;7.724;2023-05-01T07:53:29;100901.81;;;13.17;70.19
39265;BME280;42646;51.910;7.724;2023-05-01T07:56:25;100898.72;;;13.39;69.45
39265;BME280;42646;51.910;7.724;2023-05-01T07:58:53;100903.97;;;13.58;68.93
39265;BME280;42646;51.910;7.724;2023-05-01T08:01:22;100908.72;;;13.82;66.80
39265;BME280;42646;51.910;7.724;2023-05-01T08:03:51;100907.25;;;13.88;65.94
39265;BME280;42646;51.910;7.724;2023-05-01T08:06:20;100899.28;;;13.96;66.15
39265;BME280;42646;51.910;7.724;2023-05-01T08:08:49;100898.44;;;14.13;66.04
39265;BME280;42646;51.910;7.724;2023-05-01T08:11:17;100898.88;;;14.27;66.35
39265;BME280;42646;51.910;7.724;2023-05-01T08:13:45;100899.53;;;14.47;65.21
39265;BME280;42646;51.910;7.724;2023-05-01T08:16:13;100896.78;;;14.64;64.38
39265;BME280;42646;51.910;7.724;2023-05-01T08:18:41;100899.34;;;14.74;63.61
39265;BME280;42646;51.910;7.724;2023-05-01T08:21:09;100896.56;;;14.84;62.91
39265;BME280;42646;51.910;7.724;2023-05-01T08:23:37;100893.63;;;14.95;62.18
39265;BME280;42646;51.910;7.724;2023-05-01T08:26:07;100888.44;;;15.02;62.47
39265;BME280;42646;51.910;7.724;2023-05-01T08:28:34;100891.34;;;15.16;62.79
39265;BME280;42646;51.910;7.724;2023-05-01T08:31:02;100889.91;;;15.38;61.13
39265;BME280;42646;51.910;7.724;2023-05-01T08:33:30;100886.06;;;15.49;59.26
39265;BME280;42646;51.910;7.724;2023-05-01T08:35:59;100887.44;;;15.61;58.03
39265;BME280;42646;51.910;7.724;2023-05-01T08:38:27;100880.25;;;15.70;57.20
39265;BME280;42646;51.910;7.724;2023-05-01T08:40:55;100885.97;;;15.75;56.94
39265;BME280;42646;51.910;7.724;2023-05-01T08:43:26;100881.78;;;15.81;56.90
39265;BME280;42646;51.910;7.724;2023-05-01T08:45:56;100881.94;;;15.87;56.82
39265;BME280;42646;51.910;7.724;2023-05-01T08:48:27;100879.13;;;15.97;56.38
39265;BME280;42646;51.910;7.724;2023-05-01T08:50:56;100884.97;;;16.00;57.48
39265;BME280;42646;51.910;7.724;2023-05-01T08:53:25;100878.41;;;16.11;58.04
39265;BME280;42646;51.910;7.724;2023-05-01T08:55:54;100879.59;;;16.25;57.15
39265;BME280;42646;51.910;7.724;2023-05-01T08:58:30;100872.72;;;16.31;56.15
39265;BME280;42646;51.910;7.724;2023-05-01T09:01:00;100871.84;;;16.38;56.08
39265;BME280;42646;51.910;7.724;2023-05-01T09:03:30;100870.84;;;16.39;56.08
39265;BME280;42646;51.910;7.724;2023-05-01T09:06:00;100864.78;;;16.45;56.06
39265;BME280;42646;51.910;7.724;2023-05-01T09:08:29;100873.13;;;16.59;56.88
39265;BME280;42646;51.910;7.724;2023-05-01T09:10:58;100865.22;;;16.65;56.10
39265;BME280;42646;51.910;7.724;2023-05-01T09:13:29;100863.59;;;16.72;56.28
39265;BME280;42646;51.910;7.724;2023-05-01T09:15:58;100862.22;;;16.68;56.21
39265;BME280;42646;51.910;7.724;2023-05-01T09:18:26;100863.03;;;16.77;57.07
39265;BME280;42646;51.910;7.724;2023-05-01T09:20:54;100862.19;;;16.85;56.72
39265;BME280;42646;51.910;7.724;2023-05-01T09:23:26;100856.78;;;16.93;56.40
39265;BME280;42646;51.910;7.724;2023-05-01T09:25:54;100854.72;;;16.95;55.25
39265;BME280;42646;51.910;7.724;2023-05-01T09:31:42;100855.94;;;16.92;55.64
39265;BME280;42646;51.910;7.724;2023-05-01T09:34:10;100854.72;;;16.95;55.10
39265;BME280;42646;51.910;7.724;2023-05-01T09:36:44;100846.66;;;17.03;55.65
39265;BME280;42646;51.910;7.724;2023-05-01T09:39:21;100844.88;;;17.18;59.24
39265;BME280;42646;51.910;7.724;2023-05-01T09:41:50;100839.34;;;17.43;58.18
39265;BME280;42646;51.910;7.724;2023-05-01T09:44:18;100842.19;;;17.72;57.09
39265;BME280;42646;51.910;7.724;2023-05-01T09:46:48;100836.97;;;17.94;55.09
39265;BME280;42646;51.910;7.724;2023-05-01T09:49:16;100832.38;;;18.17;54.25
39265;BME280;42646;51.910;7.724;2023-05-01T09:51:44;100836.28;;;18.29;55.51
39265;BME280;42646;51.910;7.724;2023-05-01T09:54:17;100832.00;;;18.50;53.93
39265;BME280;42646;51.910;7.724;2023-05-01T09:56:46;100831.56;;;18.61;53.11
39265;BME280;42646;51.910;7.724;2023-05-01T09:59:15;100830.09;;;18.73;54.06
39265;BME280;42646;51.910;7.724;2023-05-01T10:01:45;100830.09;;;18.88;53.76
39265;BME280;42646;51.910;7.724;2023-05-01T10:04:28;100828.78;;;18.99;52.37
39265;BME280;42646;51.910;7.724;2023-05-01T10:06:57;100833.91;;;19.15;51.70
39265;BME280;42646;51.910;7.724;2023-05-01T10:09:26;100833.16;;;19.21;52.02
39265;BME280;42646;51.910;7.724;2023-05-01T10:11:55;100831.56;;;19.27;50.21
39265;BME280;42646;51.910;7.724;2023-05-01T10:14:24;100823.56;;;19.33;51.18
39265;BME280;42646;51.910;7.724;2023-05-01T10:16:55;100834.28;;;19.48;50.95
39265;BME280;42646;51.910;7.724;2023-05-01T10:19:25;100819.66;;;19.57;51.26
39265;BME280;42646;51.910;7.724;2023-05-01T10:21:53;100827.44;;;19.88;47.70
39265;BME280;42646;51.910;7.724;2023-05-01T10:24:22;100826.72;;;19.80;49.52
39265;BME280;42646;51.910;7.724;2023-05-01T10:26:50;100821.81;;;19.90;50.34
39265;BME280;42646;51.910;7.724;2023-05-01T10:29:20;100821.25;;;19.94;49.09
39265;BME280;42646;51.910;7.724;2023-05-01T10:31:53;100814.66;;;20.04;49.72
39265;BME280;42646;51.910;7.724;2023-05-01T10:34:22;100816.44;;;20.18;49.54
39265;BME280;42646;51.910;7.724;2023-05-01T10:36:57;100817.31;;;20.25;46.71
39265;BME280;42646;51.910;7.724;2023-05-01T10:39:31;100816.47;;;20.24;46.68
39265;BME280;42646;51.910;7.724;2023-05-01T10:42:00;100817.75;;;20.28;46.64
39265;BME280;42646;51.910;7.724;2023-05-01T10:44:29;100811.06;;;20.24;46.30
39265;BME280;42646;51.910;7.724;2023-05-01T10:46:57;100810.84;;;20.19;45.84
39265;BME280;42646;51.910;7.724;2023-05-01T10:50:03;100809.88;;;20.34;42.91
39265;BME280;42646;51.910;7.724;2023-05-01T10:55:43;100792.72;;;20.13;43.00
39265;BME280;42646;51.910;7.724;2023-05-01T10:58:53;100789.66;;;20.23;44.49
39265;BME280;42646;51.910;7.724;2023-05-01T11:01:27;100778.72;;;20.38;44.47
39265;BME280;42646;51.910;7.724;2023-05-01T11:03:59;100773.25;;;20.52;44.45
39265;BME280;42646;51.910;7.724;2023-05-01T11:06:27;100776.63;;;20.68;44.77
39265;BME280;42646;51.910;7.724;2023-05-01T11:08:55;100776.25;;;20.77;43.92
39265;BME280;42646;51.910;7.724;2023-05-01T11:11:47;100776.28;;;20.84;42.53
39265;BME280;42646;51.910;7.724;2023-05-01T11:14:18;100769.81;;;20.85;42.33
39265;BME280;42646;51.910;7.724;2023-05-01T11:16:46;100775.09;;;21.00;41.33
39265;BME280;42646;51.910;7.724;2023-05-01T11:19:45;100769.44;;;20.88;40.45
39265;BME280;42646;51.910;7.724;2023-05-01T11:22:17;100766.72;;;20.82;41.16
39265;BME280;42646;51.910;7.724;2023-05-01T11:24:45;100764.84;;;20.82;41.10
39265;BME280;42646;51.910;7.724;2023-05-01T11:27:15;100770.06;;;20.90;40.20
39265;BME280;42646;51.910;7.724;2023-05-01T11:29:44;100762.38;;;20.87;40.61
39265;BME280;42646;51.910;7.724;2023-05-01T11:32:16;100765.91;;;20.94;40.82
39265;BME280;42646;51.910;7.724;2023-05-01T11:34:48;100768.41;;;20.96;41.56
39265;BME280;42646;51.910;7.724;2023-05-01T11:37:16;100761.38;;;21.15;39.58
39265;BME280;42646;51.910;7.724;2023-05-01T11:39:47;100775.28;;;20.98;38.43
39265;BME280;42646;51.910;7.724;2023-05-01T11:42:18;100766.22;;;20.65;40.03
39265;BME280;42646;51.910;7.724;2023-05-01T11:45:06;100760.72;;;20.51;40.79
39265;BME280;42646;51.910;7.724;2023-05-01T11:47:36;100757.41;;;20.49;40.79
39265;BME280;42646;51.910;7.724;2023-05-01T11:50:06;100757.81;;;20.46;41.93
39265;BME280;42646;51.910;7.724;2023-05-01T11:52:42;100759.72;;;20.52;42.27
39265;BME280;42646;51.910;7.724;2023-05-01T11:55:10;100758.72;;;20.60;41.10
39265;BME280;42646;51.910;7.724;2023-05-01T11:57:46;100758.25;;;20.57;41.29
39265;BME280;42646;51.910;7.724;2023-05-01T12:00:15;100750.56;;;20.53;42.30
39265;BME280;42646;51.910;7.724;2023-05-01T12:02:56;100753.28;;;20.53;42.71
39265;BME280;42646;51.910;7.724;2023-05-01T12:05:24;100749.16;;;20.58;42.85
39265;BME280;42646;51.910;7.724;2023-05-01T12:08:12;100741.66;;;20.60;41.83
39265;BME280;42646;51.910;7.724;2023-05-01T12:10:42;100745.97;;;20.47;42.57
39265;BME280;42646;51.910;7.724;2023-05-01T12:13:12;100745.31;;;20.45;42.19
39265;BME280;42646;51.910;7.724;2023-05-01T12:15:42;100749.16;;;20.58;41.32
39265;BME280;42646;51.910;7.724;2023-05-01T12:18:12;100744.94;;;20.48;42.01
39265;BME280;42646;51.910;7.724;2023-05-01T12:20:42;100742.63;;;20.45;41.19
39265;BME280;42646;51.910;7.724;2023-05-01T12:23:11;100743.56;;;20.31;41.48
39265;BME280;42646;51.910;7.724;2023-05-01T12:25:42;100752.88;;;20.22;42.17
39265;BME280;42646;51.910;7.724;2023-05-01T12:28:14;100756.00;;;20.25;42.04
39265;BME280;42646;51.910;7.724;2023-05-01T12:30:44;100747.63;;;20.14;41.77
39265;BME280;42646;51.910;7.724;2023-05-01T12:33:14;100745.91;;;20.06;41.81
39265;BME280;42646;51.910;7.724;2023-05-01T12:35:43;100744.50;;;20.10;42.16
39265;BME280;42646;51.910;7.724;2023-05-01T12:38:13;100751.47;;;19.98;43.03
39265;BME280;42646;51.910;7.724;2023-05-01T12:40:52;100749.63;;;19.98;43.21
39265;BME280;42646;51.910;7.724;2023-05-01T12:43:29;100742.78;;;20.02;43.57
39265;BME280;42646;51.910;7.724;2023-05-01T12:45:57;100741.72;;;20.04;43.56
39265;BME280;42646;51.910;7.724;2023-05-01T12:48:26;100739.72;;;20.12;43.88
39265;BME280;42646;51.910;7.724;2023-05-01T12:50:54;100741.44;;;20.20;44.30
39265;BME280;42646;51.910;7.724;2023-05-01T12:53:23;100731.09;;;20.30;42.82
39265;BME280;42646;51.910;7.724;2023-05-01T12:55:53;100737.56;;;20.36;41.77
39265;BME280;42646;51.910;7.724;2023-05-01T12:58:23;100735.50;;;20.38;41.49
39265;BME280;42646;51.910;7.724;2023-05-01T13:01:01;100731.75;;;20.39;42.23
39265;BME280;42646;51.910;7.724;2023-05-01T13:03:32;100729.88;;;20.39;42.32
39265;BME280;42646;51.910;7.724;2023-05-01T13:06:05;100729.50;;;20.42;42.53
39265;BME280;42646;51.910;7.724;2023-05-01T13:08:36;100731.16;;;20.43;41.64
39265;BME280;42646;51.910;7.724;2023-05-01T13:11:09;100724.34;;;20.47;41.82
39265;BME280;42646;51.910;7.724;2023-05-01T13:13:40;100721.22;;;20.50;41.54
39265;BME280;42646;51.910;7.724;2023-05-01T13:16:10;100722.13;;;20.58;42.01
39265;BME280;42646;51.910;7.724;2023-05-01T13:18:44;100726.75;;;20.77;41.71
39265;BME280;42646;51.910;7.724;2023-05-01T13:21:15;100716.38;;;20.87;41.90
39265;BME280;42646;51.910;7.724;2023-05-01T13:23:52;100712.44;;;21.03;40.49
39265;BME280;42646;51.910;7.724;2023-05-01T13:26:27;100718.50;;;21.12;39.51